sensor_id;sensor_type;location;lat;lon;timestamp;pressure;altitude;pressure_sealevel;temperature;humidity
78144;BME280;67394;52.522;13.622;2023-12-20T00:00:56;100346.25;;;5.96;100.00
78144;BME280;67394;52.522;13.622;2023-12-20T00:03:23;100348.78;;;5.96;100.00
78144;BME280;67394;52.522;13.622;2023-12-20T00:05:50;100348.75;;;5.94;100.00
78144;BME280;67394;52.522;13.622;2023-12-20T00:08:17;100337.72;;;5.91;100.00
78144;BME280;67394;52.522;13.622;2023-12-20T00:10:44;100342.00;;;5.93;100.00
78144;BME280;67394;52.522;13.622;2023-12-20T00:13:10;100336.03;;;5.93;100.00
78144;BME280;67394;52.522;13.622;2023-12-20T00:15:37;100336.03;;;5.94;100.00
78144;BME280;67394;52.522;13.622;2023-12-20T00:18:04;100340.28;;;5.92;100.00
78144;BME280;67394;52.522;13.622;2023-12-20T00:20:31;100329.25;;;5.95;100.00
78144;BME280;67394;52.522;13.622;2023-12-20T00:22:58;100324.19;;;5.95;100.00
78144;BME280;67394;52.522;13.622;2023-12-20T00:25:24;100325.91;;;5.97;100.00
78144;BME280;67394;52.522;13.622;2023-12-20T00:27:51;100322.47;;;5.94;100.00
78144;BME280;67394;52.522;13.622;2023-12-20T00:30:18;100325.00;;;5.94;100.00
78144;BME280;67394;52.522;13.622;2023-12-20T00:32:45;100325.88;;;5.93;100.00
78144;BME280;67394;52.522;13.622;2023-12-20T00:35:15;100318.22;;;5.94;100.00
78144;BME280;67394;52.522;13.622;2023-12-20T00:37:43;100314.00;;;5.93;100.00
78144;BME280;67394;52.522;13.622;2023-12-20T00:40:10;100314.00;;;5.92;100.00
78144;BME280;67394;52.522;13.622;2023-12-20T00:42:37;100315.72;;;5.96;100.00
78144;BME280;67394;52.522;13.622;2023-12-20T00:45:04;100312.34;;;5.97;100.00
78144;BME280;67394;52.522;13.622;2023-12-20T00:47:31;100314.00;;;5.95;100.00
78144;BME280;67394;52.522;13.622;2023-12-20T00:49:58;100314.88;;;5.97;100.00
78144;BME280;67394;52.522;13.622;2023-12-20T00:52:25;100308.91;;;5.95;100.00
78144;BME280;67394;52.522;13.622;2023-12-20T00:54:52;100311.47;;;5.93;100.00
78144;BME280;67394;52.522;13.622;2023-12-20T00:57:18;100314.00;;;5.93;100.00
78144;BME280;67394;52.522;13.622;2023-12-20T00:59:45;100302.09;;;5.91;100.00
78144;BME280;67394;52.522;13.622;2023-12-20T01:02:12;100301.25;;;5.90;100.00
78144;BME280;67394;52.522;13.622;2023-12-20T01:04:38;100302.09;;;5.91;100.00
78144;BME280;67394;52.522;13.622;2023-12-20T01:07:05;100303.03;;;5.97;100.00
78144;BME280;67394;52.522;13.622;2023-12-20T01:09:32;100319.03;;;5.88;100.00
78144;BME280;67394;52.522;13.622;2023-12-20T01:11:59;100318.28;;;5.97;100.00
78144;BME280;67394;52.522;13.622;2023-12-20T01:14:25;100314.84;;;5.92;100.00
78144;BME280;67394;52.522;13.622;2023-12-20T01:16:52;100316.53;;;5.95;100.00
78144;BME280;67394;52.522;13.622;2023-12-20T01:19:18;100317.38;;;5.91;100.00
78144;BME280;67394;52.522;13.622;2023-12-20T01:21:45;100316.53;;;5.92;100.00
78144;BME280;67394;52.522;13.622;2023-12-20T01:24:12;100316.56;;;5.93;100.00
78144;BME280;67394;52.522;13.622;2023-12-20T01:26:38;100310.63;;;5.96;100.00
78144;BME280;67394;52.522;13.622;2023-12-20T01:29:05;100313.22;;;5.99;100.00
78144;BME280;67394;52.522;13.622;2023-12-20T01:31:32;100314.06;;;5.98;100.00
78144;BME280;67394;52.522;13.622;2023-12-20T01:33:59;100308.09;;;5.97;100.00
78144;BME280;67394;52.522;13.622;2023-12-20T01:36:26;100307.34;;;6.03;100.00
78144;BME280;67394;52.522;13.622;2023-12-20T01:38:52;100304.78;;;6.01;100.00
78144;BME280;67394;52.522;13.622;2023-12-20T01:41:19;100299.72;;;6.03;100.00
78144;BME280;67394;52.522;13.622;2023-12-20T01:43:46;100302.25;;;6.03;100.00
78144;BME280;67394;52.522;13.622;2023-12-20T01:46:19;100296.34;;;6.07;100.00
78144;BME280;67394;52.522;13.622;2023-12-20T01:48:48;100297.22;;;6.09;100.00
78144;BME280;67394;52.522;13.622;2023-12-20T01:51:15;100299.72;;;6.03;100.00
78144;BME280;67394;52.522;13.622;2023-12-20T01:53:42;100294.59;;;6.01;100.00
78144;BME280;67394;52.522;13.622;2023-12-20T01:56:09;100290.38;;;6.05;100.00
78144;BME280;67394;52.522;13.622;2023-12-20T01:58:39;100295.53;;;6.09;100.00
78144;BME280;67394;52.522;13.622;2023-12-20T02:01:10;100301.50;;;6.11;100.00
78144;BME280;67394;52.522;13.622;2023-12-20T02:03:36;100298.03;;;6.06;100.00
78144;BME280;67394;52.522;13.622;2023-12-20T02:06:04;100301.41;;;6.02;100.00
78144;BME280;67394;52.522;13.622;2023-12-20T02:08:30;100298.06;;;6.08;100.00
78144;BME280;67394;52.522;13.622;2023-12-20T02:10:57;100297.16;;;6.04;100.00
78144;BME280;67394;52.522;13.622;2023-12-20T02:13:24;100290.44;;;6.08;100.00
78144;BME280;67394;52.522;13.622;2023-12-20T02:15:51;100290.47;;;6.11;100.00
78144;BME280;67394;52.522;13.622;2023-12-20T02:18:18;100276.84;;;6.06;100.00
78144;BME280;67394;52.522;13.622;2023-12-20T02:20:45;100281.09;;;6.07;100.00
78144;BME280;67394;52.522;13.622;2023-12-20T02:23:12;100284.44;;;6.04;100.00
78144;BME280;67394;52.522;13.622;2023-12-20T02:25:39;100285.28;;;6.05;100.00
78144;BME280;67394;52.522;13.622;2023-12-20T02:28:06;100285.28;;;6.05;100.00
78144;BME280;67394;52.522;13.622;2023-12-20T02:30:32;100287.09;;;6.12;100.00
78144;BME280;67394;52.522;13.622;2023-12-20T02:33:03;100276.81;;;6.03;100.00
78144;BME280;67394;52.522;13.622;2023-12-20T02:35:34;100271.72;;;6.01;100.00
78144;BME280;67394;52.522;13.622;2023-12-20T02:38:00;100277.69;;;6.06;100.00
78144;BME280;67394;52.522;13.622;2023-12-20T02:40:27;100281.91;;;6.06;100.00
78144;BME280;67394;52.522;13.622;2023-12-20T02:42:53;100281.06;;;6.04;100.00
78144;BME280;67394;52.522;13.622;2023-12-20T02:45:20;100269.19;;;6.04;100.00
78144;BME280;67394;52.522;13.622;2023-12-20T02:47:47;100276.78;;;6.00;100.00
78144;BME280;67394;52.522;13.622;2023-12-20T02:50:14;100276.81;;;6.04;100.00
78144;BME280;67394;52.522;13.622;2023-12-20T02:52:44;100280.25;;;6.08;100.00
78144;BME280;67394;52.522;13.622;2023-12-20T02:55:11;100277.59;;;5.97;100.00
78144;BME280;67394;52.522;13.622;2023-12-20T02:57:38;100279.25;;;5.95;100.00
78144;BME280;67394;52.522;13.622;2023-12-20T03:00:05;100287.72;;;5.96;100.00
78144;BME280;67394;52.522;13.622;2023-12-20T03:02:32;100282.63;;;5.93;100.00
78144;BME280;67394;52.522;13.622;2023-12-20T03:04:58;100286.03;;;5.93;100.00
78144;BME280;67394;52.522;13.622;2023-12-20T03:07:25;100269.88;;;5.90;100.00
78144;BME280;67394;52.522;13.622;2023-12-20T03:09:52;100282.63;;;5.94;100.00
78144;BME280;67394;52.522;13.622;2023-12-20T03:12:39;100285.19;;;5.96;100.00
78144;BME280;67394;52.522;13.622;2023-12-20T03:15:06;100280.97;;;5.98;100.00
78144;BME280;67394;52.522;13.622;2023-12-20T03:17:32;100289.50;;;6.01;100.00
78144;BME280;67394;52.522;13.622;2023-12-20T03:19:59;100295.44;;;6.00;100.00
78144;BME280;67394;52.522;13.622;2023-12-20T03:22:26;100292.00;;;5.97;100.00
78144;BME280;67394;52.522;13.622;2023-12-20T03:24:52;100286.06;;;5.98;100.00
78144;BME280;67394;52.522;13.622;2023-12-20T03:27:19;100292.84;;;5.97;100.00
78144;BME280;67394;52.522;13.622;2023-12-20T03:29:45;100296.19;;;5.95;100.00
78144;BME280;67394;52.522;13.622;2023-12-20T03:32:12;100297.13;;;6.00;100.00
78144;BME280;67394;52.522;13.622;2023-12-20T03:34:39;100289.41;;;5.92;100.00
78144;BME280;67394;52.522;13.622;2023-12-20T03:37:05;100281.75;;;5.91;100.00
78144;BME280;67394;52.522;13.622;2023-12-20T03:39:32;100284.19;;;5.86;100.00
78144;BME280;67394;52.522;13.622;2023-12-20T03:41:59;100292.69;;;5.86;100.00
78144;BME280;67394;52.522;13.622;2023-12-20T03:44:25;100302.81;;;5.85;100.00
78144;BME280;67394;52.522;13.622;2023-12-20T03:46:52;100297.81;;;5.88;100.00
78144;BME280;67394;52.522;13.622;2023-12-20T03:49:18;100294.34;;;5.84;100.00
78144;BME280;67394;52.522;13.622;2023-12-20T03:51:45;100290.94;;;5.82;100.00
78144;BME280;67394;52.522;13.622;2023-12-20T03:54:12;100281.59;;;5.80;100.00
78144;BME280;67394;52.522;13.622;2023-12-20T03:56:38;100286.56;;;5.74;100.00
78144;BME280;67394;52.522;13.622;2023-12-20T03:59:05;100289.09;;;5.71;100.00
78144;BME280;67394;52.522;13.622;2023-12-20T04:01:32;100287.41;;;5.73;100.00
78144;BME280;67394;52.522;13.622;2023-12-20T04:03:58;100272.03;;;5.64;100.00
78144;BME280;67394;52.522;13.622;2023-12-20T04:06:25;100262.72;;;5.61;100.00
78144;BME280;67394;52.522;13.622;2023-12-20T04:08:52;100268.63;;;5.62;100.00
78144;BME280;67394;52.522;13.622;2023-12-20T04:11:18;100272.81;;;5.58;100.00
78144;BME280;67394;52.522;13.622;2023-12-20T04:13:45;100274.47;;;5.55;100.00
78144;BME280;67394;52.522;13.622;2023-12-20T04:16:11;100267.75;;;5.60;100.00
78144;BME280;67394;52.522;13.622;2023-12-20T04:18:38;100272.78;;;5.55;100.00
78144;BME280;67394;52.522;13.622;2023-12-20T04:21:04;100263.50;;;5.57;100.00
78144;BME280;67394;52.522;13.622;2023-12-20T04:23:31;100264.31;;;5.56;100.00
78144;BME280;67394;52.522;13.622;2023-12-20T04:25:57;100269.44;;;5.59;100.00
78144;BME280;67394;52.522;13.622;2023-12-20T04:28:24;100261.00;;;5.62;100.00
78144;BME280;67394;52.522;13.622;2023-12-20T04:30:51;100265.09;;;5.52;100.00
78144;BME280;67394;52.522;13.622;2023-12-20T04:33:17;100264.19;;;5.47;100.00
78144;BME280;67394;52.522;13.622;2023-12-20T04:35:44;100258.25;;;5.46;100.00
78144;BME280;67394;52.522;13.622;2023-12-20T04:38:10;100260.72;;;5.42;100.00
78144;BME280;67394;52.522;13.622;2023-12-20T04:40:37;100267.63;;;5.49;100.00
78144;BME280;67394;52.522;13.622;2023-12-20T04:43:04;100259.13;;;5.47;100.00
78144;BME280;67394;52.522;13.622;2023-12-20T04:45:30;100268.44;;;5.46;100.00
78144;BME280;67394;52.522;13.622;2023-12-20T04:47:57;100260.72;;;5.42;100.00
78144;BME280;67394;52.522;13.622;2023-12-20T04:50:24;100263.94;;;5.29;100.00
78144;BME280;67394;52.522;13.622;2023-12-20T04:52:51;100253.88;;;5.35;100.00
78144;BME280;67394;52.522;13.622;2023-12-20T04:55:17;100252.94;;;5.31;100.00
78144;BME280;67394;52.522;13.622;2023-12-20T04:57:44;100248.66;;;5.26;100.00
78144;BME280;67394;52.522;13.622;2023-12-20T05:00:11;100257.09;;;5.25;100.00
78144;BME280;67394;52.522;13.622;2023-12-20T05:02:38;100257.94;;;5.24;100.00
78144;BME280;67394;52.522;13.622;2023-12-20T05:05:05;100253.63;;;5.20;100.00
78144;BME280;67394;52.522;13.622;2023-12-20T05:07:32;100253.59;;;5.17;100.00
78144;BME280;67394;52.522;13.622;2023-12-20T05:09:58;100257.78;;;5.13;100.00
78144;BME280;67394;52.522;13.622;2023-12-20T05:12:25;100270.44;;;5.08;100.00
78144;BME280;67394;52.522;13.622;2023-12-20T05:14:52;100267.94;;;5.13;100.00
78144;BME280;67394;52.522;13.622;2023-12-20T05:17:18;100263.69;;;5.12;100.00
78144;BME280;67394;52.522;13.622;2023-12-20T05:19:46;100267.03;;;5.09;100.00
78144;BME280;67394;52.522;13.622;2023-12-20T05:22:12;100265.44;;;5.16;100.00
78144;BME280;67394;52.522;13.622;2023-12-20T05:24:39;100262.00;;;5.12;100.00
78144;BME280;67394;52.522;13.622;2023-12-20T05:27:05;100263.78;;;5.20;100.00
78144;BME280;67394;52.522;13.622;2023-12-20T05:29:32;100268.09;;;5.24;100.00
78144;BME280;67394;52.522;13.622;2023-12-20T05:31:58;100269.84;;;5.26;100.00
78144;BME280;67394;52.522;13.622;2023-12-20T05:34:25;100272.31;;;5.23;100.00
78144;BME280;67394;52.522;13.622;2023-12-20T05:36:52;100267.25;;;5.23;100.00
78144;BME280;67394;52.522;13.622;2023-12-20T05:39:18;100271.41;;;5.20;100.00
78144;BME280;67394;52.522;13.622;2023-12-20T05:41:45;100276.50;;;5.20;100.00
78144;BME280;67394;52.522;13.622;2023-12-20T05:44:11;100273.94;;;5.20;100.00
78144;BME280;67394;52.522;13.622;2023-12-20T05:46:38;100261.16;;;5.13;100.00
78144;BME280;67394;52.522;13.622;2023-12-20T05:49:04;100259.50;;;5.14;100.00
78144;BME280;67394;52.522;13.622;2023-12-20T05:51:31;100261.91;;;5.06;100.00
78144;BME280;67394;52.522;13.622;2023-12-20T05:53:58;100259.41;;;5.08;100.00
78144;BME280;67394;52.522;13.622;2023-12-20T05:56:26;100260.09;;;4.98;100.00
78144;BME280;67394;52.522;13.622;2023-12-20T05:58:53;100252.31;;;4.87;100.00
78144;BME280;67394;52.522;13.622;2023-12-20T06:01:19;100252.41;;;4.93;100.00
78144;BME280;67394;52.522;13.622;2023-12-20T06:03:46;100248.00;;;4.83;100.00
78144;BME280;67394;52.522;13.622;2023-12-20T06:06:13;100246.22;;;4.76;100.00
78144;BME280;67394;52.522;13.622;2023-12-20T06:08:43;100241.91;;;4.72;100.00
78144;BME280;67394;52.522;13.622;2023-12-20T06:11:10;100254.53;;;4.69;100.00
78144;BME280;67394;52.522;13.622;2023-12-20T06:13:36;100246.88;;;4.67;100.00
78144;BME280;67394;52.522;13.622;2023-12-20T06:16:05;100245.94;;;4.61;100.00
78144;BME280;67394;52.522;13.622;2023-12-20T06:18:33;100237.44;;;4.59;100.00
78144;BME280;67394;52.522;13.622;2023-12-20T06:20:59;100234.94;;;4.60;100.00
78144;BME280;67394;52.522;13.622;2023-12-20T06:23:26;100237.50;;;4.62;100.00
78144;BME280;67394;52.522;13.622;2023-12-20T06:25:54;100239.13;;;4.58;100.00
78144;BME280;67394;52.522;13.622;2023-12-20T06:28:20;100240.94;;;4.64;100.00
78144;BME280;67394;52.522;13.622;2023-12-20T06:30:50;100239.09;;;4.57;100.00
78144;BME280;67394;52.522;13.622;2023-12-20T06:33:17;100233.16;;;4.55;100.00
78144;BME280;67394;52.522;13.622;2023-12-20T06:35:44;100223.75;;;4.49;100.00
78144;BME280;67394;52.522;13.622;2023-12-20T06:38:11;100245.75;;;4.50;100.00
78144;BME280;67394;52.522;13.622;2023-12-20T06:40:39;100249.22;;;4.54;100.00
78144;BME280;67394;52.522;13.622;2023-12-20T06:43:06;100244.84;;;4.47;100.00
78144;BME280;67394;52.522;13.622;2023-12-20T06:45:46;100249.16;;;4.51;100.00
78144;BME280;67394;52.522;13.622;2023-12-20T06:48:12;100246.53;;;4.45;100.00
78144;BME280;67394;52.522;13.622;2023-12-20T06:50:39;100245.72;;;4.49;100.00
78144;BME280;67394;52.522;13.622;2023-12-20T06:53:06;100244.03;;;4.49;100.00
78144;BME280;67394;52.522;13.622;2023-12-20T06:55:35;100242.31;;;4.47;100.00
78144;BME280;67394;52.522;13.622;2023-12-20T06:58:01;100229.66;;;4.48;100.00
78144;BME280;67394;52.522;13.622;2023-12-20T07:00:28;100232.97;;;4.44;100.00
78144;BME280;67394;52.522;13.622;2023-12-20T07:02:55;100231.28;;;4.43;100.00
78144;BME280;67394;52.522;13.622;2023-12-20T07:05:21;100231.28;;;4.43;100.00
78144;BME280;67394;52.522;13.622;2023-12-20T07:07:48;100233.84;;;4.45;100.00
78144;BME280;67394;52.522;13.622;2023-12-20T07:10:16;100234.66;;;4.44;100.00
78144;BME280;67394;52.522;13.622;2023-12-20T07:12:42;100231.28;;;4.43;100.00
78144;BME280;67394;52.522;13.622;2023-12-20T07:15:09;100233.84;;;4.45;100.00
78144;BME280;67394;52.522;13.622;2023-12-20T07:17:36;100236.41;;;4.48;100.00
78144;BME280;67394;52.522;13.622;2023-12-20T07:20:03;100232.97;;;4.44;100.00
78144;BME280;67394;52.522;13.622;2023-12-20T07:22:31;100227.09;;;4.47;100.00
78144;BME280;67394;52.522;13.622;2023-12-20T07:24:59;100229.75;;;4.56;100.00
78144;BME280;67394;52.522;13.622;2023-12-20T07:27:26;100235.72;;;4.58;100.00
78144;BME280;67394;52.522;13.622;2023-12-20T07:29:53;100233.16;;;4.56;100.00
78144;BME280;67394;52.522;13.622;2023-12-20T07:32:19;100232.31;;;4.56;100.00
78144;BME280;67394;52.522;13.622;2023-12-20T07:34:46;100229.84;;;4.60;100.00
78144;BME280;67394;52.522;13.622;2023-12-20T07:37:13;100244.41;;;4.70;100.00
78144;BME280;67394;52.522;13.622;2023-12-20T07:39:40;100231.69;;;4.69;100.00
78144;BME280;67394;52.522;13.622;2023-12-20T07:42:07;100231.75;;;4.72;100.00
78144;BME280;67394;52.522;13.622;2023-12-20T07:44:34;100227.50;;;4.71;100.00
78144;BME280;67394;52.522;13.622;2023-12-20T07:47:01;100226.59;;;4.67;100.00
78144;BME280;67394;52.522;13.622;2023-12-20T07:49:30;100219.75;;;4.63;100.00
78144;BME280;67394;52.522;13.622;2023-12-20T07:51:57;100212.22;;;4.68;100.00
78144;BME280;67394;52.522;13.622;2023-12-20T07:54:23;100224.03;;;4.66;100.00
78144;BME280;67394;52.522;13.622;2023-12-20T07:56:50;100218.13;;;4.68;100.00
78144;BME280;67394;52.522;13.622;2023-12-20T07:59:17;100217.34;;;4.71;100.00
78144;BME280;67394;52.522;13.622;2023-12-20T08:01:55;100219.00;;;4.69;100.00
78144;BME280;67394;52.522;13.622;2023-12-20T08:04:22;100219.84;;;4.69;100.00
78144;BME280;67394;52.522;13.622;2023-12-20T08:06:50;100229.25;;;4.73;100.00
78144;BME280;67394;52.522;13.622;2023-12-20T08:09:17;100219.09;;;4.73;100.00
78144;BME280;67394;52.522;13.622;2023-12-20T08:11:47;100229.25;;;4.73;100.00
78144;BME280;67394;52.522;13.622;2023-12-20T08:14:14;100236.88;;;4.75;100.00
78144;BME280;67394;52.522;13.622;2023-12-20T08:16:42;100227.59;;;4.75;100.00
78144;BME280;67394;52.522;13.622;2023-12-20T08:19:17;100226.75;;;4.78;100.00
78144;BME280;67394;52.522;13.622;2023-12-20T08:21:43;100222.47;;;4.74;100.00
78144;BME280;67394;52.522;13.622;2023-12-20T08:24:10;100228.53;;;4.82;100.00
78144;BME280;67394;52.522;13.622;2023-12-20T08:26:36;100224.25;;;4.79;100.00
78144;BME280;67394;52.522;13.622;2023-12-20T08:29:04;100225.91;;;4.76;100.00
78144;BME280;67394;52.522;13.622;2023-12-20T08:31:30;100209.78;;;4.74;100.00
78144;BME280;67394;52.522;13.622;2023-12-20T08:33:57;100216.56;;;4.75;100.00
78144;BME280;67394;52.522;13.622;2023-12-20T08:36:23;100222.53;;;4.78;100.00
78144;BME280;67394;52.522;13.622;2023-12-20T08:38:50;100216.72;;;4.84;100.00
78144;BME280;67394;52.522;13.622;2023-12-20T08:41:17;100210.00;;;4.89;100.00
78144;BME280;67394;52.522;13.622;2023-12-20T08:43:44;100214.25;;;4.90;100.00
78144;BME280;67394;52.522;13.622;2023-12-20T08:46:11;100212.59;;;4.92;100.00
78144;BME280;67394;52.522;13.622;2023-12-20T08:48:40;100223.59;;;4.93;100.00
78144;BME280;67394;52.522;13.622;2023-12-20T08:51:07;100220.25;;;4.94;100.00
78144;BME280;67394;52.522;13.622;2023-12-20T08:53:33;100215.22;;;4.98;100.00
78144;BME280;67394;52.522;13.622;2023-12-20T08:56:00;100211.00;;;4.97;100.00
78144;BME280;67394;52.522;13.622;2023-12-20T08:58:27;100213.59;;;5.02;100.00
78144;BME280;67394;52.522;13.622;2023-12-20T09:00:54;100202.69;;;5.10;100.00
78144;BME280;67394;52.522;13.622;2023-12-20T09:03:21;100205.22;;;5.07;100.00
78144;BME280;67394;52.522;13.622;2023-12-20T09:05:47;100212.06;;;5.14;100.00
78144;BME280;67394;52.522;13.622;2023-12-20T09:08:13;100195.97;;;5.12;100.00
78144;BME280;67394;52.522;13.622;2023-12-20T09:10:40;100212.91;;;5.13;100.00
78144;BME280;67394;52.522;13.622;2023-12-20T09:13:06;100206.22;;;5.19;100.00
78144;BME280;67394;52.522;13.622;2023-12-20T09:15:33;100202.81;;;5.20;100.00
78144;BME280;67394;52.522;13.622;2023-12-20T09:18:02;100209.75;;;5.28;100.00
78144;BME280;67394;52.522;13.622;2023-12-20T09:20:29;100199.63;;;5.33;100.00
78144;BME280;67394;52.522;13.622;2023-12-20T09:22:56;100205.59;;;5.36;100.00
78144;BME280;67394;52.522;13.622;2023-12-20T09:25:22;100201.41;;;5.38;100.00
78144;BME280;67394;52.522;13.622;2023-12-20T09:27:49;100189.53;;;5.37;100.00
78144;BME280;67394;52.522;13.622;2023-12-20T09:30:16;100185.31;;;5.38;100.00
78144;BME280;67394;52.522;13.622;2023-12-20T09:32:53;100184.47;;;5.40;100.00
78144;BME280;67394;52.522;13.622;2023-12-20T09:35:19;100186.13;;;5.37;100.00
78144;BME280;67394;52.522;13.622;2023-12-20T09:37:46;100187.78;;;5.33;100.00
78144;BME280;67394;52.522;13.622;2023-12-20T09:40:13;100182.72;;;5.35;100.00
78144;BME280;67394;52.522;13.622;2023-12-20T09:45:14;100175.91;;;5.34;100.00
78144;BME280;67394;52.522;13.622;2023-12-20T09:47:43;100185.19;;;5.30;100.00
78144;BME280;67394;52.522;13.622;2023-12-20T09:50:10;100177.50;;;5.26;100.00
78144;BME280;67394;52.522;13.622;2023-12-20T09:52:39;100178.31;;;5.23;100.00
78144;BME280;67394;52.522;13.622;2023-12-20T09:55:06;100179.19;;;5.25;100.00
78144;BME280;67394;52.522;13.622;2023-12-20T09:57:34;100180.88;;;5.25;100.00
78144;BME280;67394;52.522;13.622;2023-12-20T10:00:01;100174.97;;;5.26;100.00
78144;BME280;67394;52.522;13.622;2023-12-20T10:02:28;100173.25;;;5.25;100.00
78144;BME280;67394;52.522;13.622;2023-12-20T10:04:55;100175.78;;;5.23;100.00
78144;BME280;67394;52.522;13.622;2023-12-20T10:07:22;100159.72;;;5.24;100.00
78144;BME280;67394;52.522;13.622;2023-12-20T10:09:51;100151.22;;;5.24;100.00
78144;BME280;67394;52.522;13.622;2023-12-20T10:12:20;100144.50;;;5.27;100.00
78144;BME280;67394;52.522;13.622;2023-12-20T10:14:47;100143.66;;;5.27;100.00
78144;BME280;67394;52.522;13.622;2023-12-20T10:17:13;100135.22;;;5.28;100.00
78144;BME280;67394;52.522;13.622;2023-12-20T10:19:40;100132.66;;;5.28;100.00
78144;BME280;67394;52.522;13.622;2023-12-20T10:22:07;100119.97;;;5.31;100.00
78144;BME280;67394;52.522;13.622;2023-12-20T10:24:33;100118.25;;;5.30;100.00
78144;BME280;67394;52.522;13.622;2023-12-20T10:27:04;100110.66;;;5.31;100.00
78144;BME280;67394;52.522;13.622;2023-12-20T10:29:37;100114.94;;;5.34;100.00
78144;BME280;67394;52.522;13.622;2023-12-20T10:32:24;100111.59;;;5.38;100.00
78144;BME280;67394;52.522;13.622;2023-12-20T10:34:52;100114.09;;;5.35;100.00
78144;BME280;67394;52.522;13.622;2023-12-20T10:37:19;100105.69;;;5.39;100.00
78144;BME280;67394;52.522;13.622;2023-12-20T10:39:51;100110.75;;;5.40;100.00
78144;BME280;67394;52.522;13.622;2023-12-20T10:42:21;100103.16;;;5.42;100.00
78144;BME280;67394;52.522;13.622;2023-12-20T10:44:49;100101.50;;;5.44;100.00
78144;BME280;67394;52.522;13.622;2023-12-20T10:47:16;100107.47;;;5.47;100.00
78144;BME280;67394;52.522;13.622;2023-12-20T10:49:43;100095.69;;;5.54;100.00
78144;BME280;67394;52.522;13.622;2023-12-20T10:52:12;100087.19;;;5.53;100.00
78144;BME280;67394;52.522;13.622;2023-12-20T10:54:40;100072.00;;;5.58;100.00
78144;BME280;67394;52.522;13.622;2023-12-20T10:57:07;100076.25;;;5.59;100.00
78144;BME280;67394;52.522;13.622;2023-12-20T10:59:36;100074.59;;;5.61;100.00
78144;BME280;67394;52.522;13.622;2023-12-20T11:02:06;100072.06;;;5.64;100.00
78144;BME280;67394;52.522;13.622;2023-12-20T11:04:43;100077.19;;;5.69;100.00
78144;BME280;67394;52.522;13.622;2023-12-20T11:07:21;100072.09;;;5.67;100.00
78144;BME280;67394;52.522;13.622;2023-12-20T11:10:00;100061.94;;;5.67;100.00
78144;BME280;67394;52.522;13.622;2023-12-20T11:12:37;100059.38;;;5.67;100.00
78144;BME280;67394;52.522;13.622;2023-12-20T11:15:07;100054.31;;;5.67;100.00
78144;BME280;67394;52.522;13.622;2023-12-20T11:17:34;100056.00;;;5.67;100.00
78144;BME280;67394;52.522;13.622;2023-12-20T11:22:30;100045.88;;;5.70;100.00
78144;BME280;67394;52.522;13.622;2023-12-20T11:25:09;100040.75;;;5.68;100.00
78144;BME280;67394;52.522;13.622;2023-12-20T11:27:37;100040.75;;;5.68;100.00
78144;BME280;67394;52.522;13.622;2023-12-20T11:30:06;100028.88;;;5.67;100.00
78144;BME280;67394;52.522;13.622;2023-12-20T11:32:34;100027.13;;;5.63;100.00
78144;BME280;67394;52.522;13.622;2023-12-20T11:37:36;100013.59;;;5.61;100.00
78144;BME280;67394;52.522;13.622;2023-12-20T11:40:06;100009.31;;;5.57;100.00
78144;BME280;67394;52.522;13.622;2023-12-20T11:42:37;100008.38;;;5.52;100.00
78144;BME280;67394;52.522;13.622;2023-12-20T11:45:04;99998.25;;;5.50;100.00
78144;BME280;67394;52.522;13.622;2023-12-20T11:47:31;99989.75;;;5.50;100.00
78144;BME280;67394;52.522;13.622;2023-12-20T11:49:58;99987.19;;;5.47;100.00
78144;BME280;67394;52.522;13.622;2023-12-20T11:52:25;99973.59;;;5.45;100.00
78144;BME280;67394;52.522;13.622;2023-12-20T11:54:51;99975.28;;;5.44;100.00
78144;BME280;67394;52.522;13.622;2023-12-20T11:57:18;99965.16;;;5.46;100.00
78144;BME280;67394;52.522;13.622;2023-12-20T11:59:45;99975.31;;;5.46;100.00
78144;BME280;67394;52.522;13.622;2023-12-20T12:02:12;99971.94;;;5.48;100.00
78144;BME280;67394;52.522;13.622;2023-12-20T12:04:41;99966.03;;;5.51;100.00
78144;BME280;67394;52.522;13.622;2023-12-20T12:07:09;99960.06;;;5.47;100.00
78144;BME280;67394;52.522;13.622;2023-12-20T12:09:35;99950.75;;;5.46;100.00
78144;BME280;67394;52.522;13.622;2023-12-20T12:12:02;99939.78;;;5.49;100.00
78144;BME280;67394;52.522;13.622;2023-12-20T12:14:29;99932.19;;;5.55;100.00
78144;BME280;67394;52.522;13.622;2023-12-20T12:16:55;99905.09;;;5.59;100.00
78144;BME280;67394;52.522;13.622;2023-12-20T12:19:23;99918.66;;;5.62;100.00
78144;BME280;67394;52.522;13.622;2023-12-20T12:22:10;99909.38;;;5.61;100.00
78144;BME280;67394;52.522;13.622;2023-12-20T12:24:46;99910.16;;;5.57;100.00
78144;BME280;67394;52.522;13.622;2023-12-20T12:27:13;99894.91;;;5.57;100.00
78144;BME280;67394;52.522;13.622;2023-12-20T12:29:40;99899.16;;;5.58;100.00
78144;BME280;67394;52.522;13.622;2023-12-20T12:32:07;99895.81;;;5.61;100.00
78144;BME280;67394;52.522;13.622;2023-12-20T12:34:35;99885.63;;;5.64;100.00
78144;BME280;67394;52.522;13.622;2023-12-20T12:37:07;99876.31;;;5.64;100.00
78144;BME280;67394;52.522;13.622;2023-12-20T12:39:34;99880.53;;;5.58;100.00
78144;BME280;67394;52.522;13.622;2023-12-20T12:42:02;99881.34;;;5.50;100.00
78144;BME280;67394;52.522;13.622;2023-12-20T12:44:29;99879.56;;;5.45;100.00
78144;BME280;67394;52.522;13.622;2023-12-20T12:46:55;99871.91;;;5.39;100.00
78144;BME280;67394;52.522;13.622;2023-12-20T12:49:22;99875.25;;;5.35;100.00